Time;durP1;ratioP1;P1;durP2;ratioP2;P2;SDS_P1;SDS_P2;PMS_P1;PMS_P2;Temp;Humidity;BMP_temperature;BMP_pressure;BME280_temperature;BME280_humidity;BME280_pressure;Samples;Min_cycle;Max_cycle;Signal;HPM_P1;HPM_P2
2023/05/01 00:00:03;;;;;;;4.05;2.65;;;14.30;99.90;;;;;;5014769;28;20393;-84
2023/05/01 00:02:29;;;;;;;3.83;3.30;;;14.30;99.90;;;;;;4994816;28;20022;-85
2023/05/01 00:04:55;;;;;;;3.63;3.33;;;14.30;99.90;;;;;;4995467;28;20394;-84
2023/05/01 00:07:21;;;;;;;5.22;3.53;;;14.20;99.90;;;;;;5014051;28;20520;-84
2023/05/01 00:09:47;;;;;;;4.60;3.42;;;14.20;99.90;;;;;;5006398;28;20079;-85
2023/05/01 00:12:13;;;;;;;3.20;2.90;;;14.20;99.90;;;;;;5014363;28;20116;-85
2023/05/01 00:14:38;;;;;;;3.22;2.92;;;14.20;99.90;;;;;;5011595;28;20125;-84
2023/05/01 00:17:05;;;;;;;2.78;2.58;;;14.20;99.90;;;;;;4995114;28;20168;-84
2023/05/01 00:19:31;;;;;;;2.90;2.70;;;14.20;99.90;;;;;;4995146;28;20034;-85
2023/05/01 00:21:57;;;;;;;4.03;3.10;;;14.20;99.90;;;;;;4994707;28;20057;-85
2023/05/01 00:24:22;;;;;;;3.75;2.80;;;14.20;99.90;;;;;;5003699;28;20065;-84
2023/05/01 00:26:48;;;;;;;5.75;3.45;;;14.40;99.90;;;;;;5003901;28;20065;-84
2023/05/01 00:29:14;;;;;;;3.13;2.83;;;14.20;99.90;;;;;;5005736;28;20030;-84
2023/05/01 00:31:41;;;;;;;3.42;3.13;;;14.20;99.90;;;;;;5010907;28;20494;-85
2023/05/01 00:34:06;;;;;;;5.30;3.10;;;14.10;99.90;;;;;;5014652;28;20379;-84
2023/05/01 00:36:32;;;;;;;4.85;3.00;;;14.10;99.90;;;;;;5013745;28;20029;-84
2023/05/01 00:38:58;;;;;;;3.88;3.35;;;14.10;99.90;;;;;;5008648;28;20042;-84
2023/05/01 00:41:23;;;;;;;9.85;3.30;;;14.20;99.90;;;;;;4994694;28;20490;-83
2023/05/01 00:43:49;;;;;;;4.40;3.58;;;14.10;99.90;;;;;;5002756;28;20529;-84
2023/05/01 00:46:14;;;;;;;3.60;2.80;;;14.10;99.90;;;;;;4994158;28;20033;-83
2023/05/01 00:48:40;;;;;;;4.38;3.22;;;14.20;99.90;;;;;;5003240;28;20026;-83
2023/05/01 00:51:07;;;;;;;3.15;2.85;;;14.10;99.90;;;;;;5013660;28;20022;-84
2023/05/01 00:53:32;;;;;;;5.15;3.45;;;14.10;99.90;;;;;;5013732;28;20038;-84
2023/05/01 00:55:59;;;;;;;3.88;3.22;;;14.10;99.90;;;;;;5010386;28;20537;-84
2023/05/01 00:58:25;;;;;;;3.55;3.25;;;14.10;99.90;;;;;;4994073;28;20112;-83
2023/05/01 01:00:51;;;;;;;3.50;2.90;;;14.10;99.90;;;;;;5003655;28;20048;-84
2023/05/01 01:03:17;;;;;;;4.25;3.22;;;14.00;99.90;;;;;;5000261;28;20045;-84
2023/05/01 01:05:54;;;;;;;3.72;3.17;;;14.10;99.90;;;;;;5011049;28;20473;-84
2023/05/01 01:08:32;;;;;;;4.55;3.50;;;14.10;99.90;;;;;;5013699;28;20030;-84
2023/05/01 01:11:08;;;;;;;3.50;3.20;;;13.90;99.90;;;;;;4993610;28;20429;-84
2023/05/01 01:13:46;;;;;;;6.18;3.65;;;13.80;99.90;;;;;;4994295;28;20039;-84
2023/05/01 01:16:22;;;;;;;5.05;3.00;;;13.80;99.90;;;;;;4993978;28;20053;-84
2023/05/01 01:19:31;;;;;;;6.40;3.50;;;13.90;99.90;;;;;;4993412;28;20122;-85
2023/05/01 01:22:07;;;;;;;8.05;3.47;;;13.90;99.90;;;;;;4978665;28;20037;-84
2023/05/01 01:25:05;;;;;;;4.03;3.60;;;13.90;99.90;;;;;;4993811;28;20480;-85
2023/05/01 01:27:53;;;;;;;3.53;3.10;;;13.90;99.90;;;;;;4993854;28;20019;-85
2023/05/01 01:30:45;;;;;;;9.40;3.58;;;13.90;99.90;;;;;;5001351;28;20470;-84
2023/05/01 01:33:27;;;;;;;3.60;3.20;;;13.90;99.90;;;;;;5003830;28;20046;-84
2023/05/01 01:35:56;;;;;;;4.50;3.30;;;13.90;99.90;;;;;;5012234;28;20378;-85
2023/05/01 01:38:40;;;;;;;3.50;3.13;;;13.90;99.90;;;;;;5012987;28;20033;-85
2023/05/01 01:41:18;;;;;;;4.72;3.42;;;13.90;99.90;;;;;;4992805;28;20114;-84
2023/05/01 01:43:51;;;;;;;4.20;3.80;;;13.90;99.90;;;;;;4996961;28;20388;-84
2023/05/01 01:46:19;;;;;;;3.80;3.50;;;13.90;99.90;;;;;;4993823;28;20080;-84
2023/05/01 01:48:49;;;;;;;5.82;3.55;;;13.90;99.90;;;;;;5001974;28;20025;-84
2023/05/01 01:51:18;;;;;;;5.03;3.30;;;13.90;99.90;;;;;;5013738;28;20172;-84
2023/05/01 01:53:49;;;;;;;3.33;3.00;;;13.80;99.90;;;;;;5012231;28;20045;-84
2023/05/01 01:56:16;;;;;;;;;;;13.80;99.90;;;;;;5000672;28;20023;-83
2023/05/01 01:58:44;;;;;;;5.00;2.70;;;13.80;99.90;;;;;;4993025;28;19905;-84
2023/05/01 02:01:12;;;;;;;3.70;3.40;;;13.80;99.90;;;;;;4992903;28;20541;-84
2023/05/01 02:03:39;;;;;;;3.28;2.80;;;13.80;99.90;;;;;;4992838;28;20093;-84
2023/05/01 02:06:07;;;;;;;4.80;2.97;;;13.70;99.90;;;;;;4996144;28;20050;-84
2023/05/01 02:08:35;;;;;;;4.60;3.40;;;13.60;99.90;;;;;;4997409;28;20038;-84
2023/05/01 02:11:01;;;;;;;8.88;3.58;;;13.60;99.90;;;;;;4992888;28;20430;-84
2023/05/01 02:13:30;;;;;;;5.00;3.13;;;13.60;99.90;;;;;;4992858;28;20486;-84
2023/05/01 02:15:57;;;;;;;4.70;3.85;;;13.70;99.90;;;;;;4992390;28;20105;-83
2023/05/01 02:18:26;;;;;;;4.10;3.17;;;13.70;99.90;;;;;;4998830;28;20032;-84
2023/05/01 02:20:52;;;;;;;9.48;3.55;;;13.70;99.90;;;;;;5000121;28;20497;-84
2023/05/01 02:23:18;;;;;;;6.10;3.22;;;13.70;99.90;;;;;;4996083;28;20065;-84
2023/05/01 02:25:45;;;;;;;4.00;3.08;;;13.70;99.90;;;;;;5012095;28;20056;-84
2023/05/01 02:28:17;;;;;;;4.38;3.30;;;13.70;99.90;;;;;;5012083;28;20030;-84
2023/05/01 02:30:43;;;;;;;4.63;3.42;;;13.70;99.90;;;;;;5012376;28;20021;-83
2023/05/01 02:33:09;;;;;;;3.60;3.20;;;13.70;99.90;;;;;;5012568;28;20536;-84
2023/05/01 02:35:39;;;;;;;3.33;2.85;;;13.70;99.90;;;;;;5011873;28;20030;-84
2023/05/01 02:38:06;;;;;;;5.10;3.40;;;13.70;99.90;;;;;;5011886;28;20033;-84
2023/05/01 02:40:33;;;;;;;4.45;3.38;;;13.70;99.90;;;;;;4997441;28;20053;-84
2023/05/01 02:43:02;;;;;;;3.63;3.33;;;13.70;99.90;;;;;;5011572;28;20505;-84
2023/05/01 02:45:29;;;;;;;6.90;3.50;;;13.60;99.90;;;;;;5012134;28;20158;-83
2023/05/01 02:47:58;;;;;;;6.95;3.65;;;13.60;99.90;;;;;;5002288;28;20448;-84
2023/05/01 02:50:25;;;;;;;4.15;3.50;;;13.60;99.90;;;;;;5011521;28;20034;-83
2023/05/01 02:52:50;;;;;;;7.47;3.80;;;13.70;99.90;;;;;;5005184;28;20026;-84
2023/05/01 02:55:17;;;;;;;4.30;3.47;;;13.70;99.90;;;;;;5003963;28;20077;-84
2023/05/01 02:57:42;;;;;;;5.75;3.80;;;13.60;99.90;;;;;;5008733;28;20031;-83
2023/05/01 03:00:12;;;;;;;4.70;3.72;;;13.70;99.90;;;;;;4996792;28;20532;-84
2023/05/01 03:02:41;;;;;;;4.03;3.50;;;13.70;99.90;;;;;;4996732;28;20034;-84
2023/05/01 03:05:07;;;;;;;4.43;3.88;;;13.70;99.90;;;;;;4996216;28;20278;-84
2023/05/01 03:07:35;;;;;;;5.93;3.83;;;13.60;99.90;;;;;;5006303;28;20034;-84
2023/05/01 03:10:03;;;;;;;3.80;3.47;;;13.70;99.90;;;;;;5013452;28;20025;-84
2023/05/01 03:12:29;;;;;;;4.78;3.47;;;13.60;99.90;;;;;;5014347;28;20030;-83
2023/05/01 03:14:55;;;;;;;4.38;3.40;;;13.70;99.90;;;;;;5015962;28;20234;-84
2023/05/01 03:17:21;;;;;;;6.82;3.78;;;13.50;99.90;;;;;;5015726;28;20101;-84
2023/05/01 03:19:47;;;;;;;3.88;3.50;;;13.50;99.90;;;;;;5015365;28;20029;-84
2023/05/01 03:22:13;;;;;;;4.82;3.28;;;13.50;99.90;;;;;;5015866;28;20030;-84
2023/05/01 03:24:38;;;;;;;6.35;3.47;;;13.50;99.90;;;;;;5014392;28;20030;-84
2023/05/01 03:27:04;;;;;;;3.50;3.20;;;13.50;99.90;;;;;;5007117;28;20030;-83
2023/05/01 03:29:30;;;;;;;5.20;3.40;;;13.50;99.90;;;;;;4996583;28;20488;-84
2023/05/01 03:31:56;;;;;;;3.63;3.33;;;13.50;99.90;;;;;;5010362;28;20060;-84
2023/05/01 03:34:22;;;;;;;3.88;3.47;;;13.50;99.90;;;;;;4998669;28;20121;-84
2023/05/01 03:36:48;;;;;;;4.90;3.63;;;13.50;99.90;;;;;;4996090;28;20530;-84
2023/05/01 03:39:13;;;;;;;6.68;4.05;;;13.40;99.90;;;;;;4995640;28;20062;-84
2023/05/01 03:41:39;;;;;;;4.05;3.65;;;13.50;99.90;;;;;;5001901;28;20096;-84
2023/05/01 03:44:04;;;;;;;7.03;3.88;;;13.50;99.90;;;;;;4999524;28;20465;-84
2023/05/01 03:46:30;;;;;;;6.63;4.45;;;13.50;99.90;;;;;;5015056;28;20033;-84
2023/05/01 03:48:56;;;;;;;3.75;3.45;;;13.40;99.90;;;;;;5014783;28;20061;-84
2023/05/01 03:51:21;;;;;;;5.38;3.63;;;13.50;99.90;;;;;;5015385;28;20017;-84
2023/05/01 03:53:47;;;;;;;3.85;3.55;;;13.50;99.90;;;;;;5014445;28;20493;-83
2023/05/01 03:56:12;;;;;;;6.50;3.97;;;13.40;99.90;;;;;;5007683;28;20026;-84
2023/05/01 03:58:38;;;;;;;5.45;3.70;;;13.40;99.90;;;;;;5015240;28;20026;-84
2023/05/01 04:01:03;;;;;;;5.07;3.30;;;13.30;99.90;;;;;;5005461;28;20105;-83
2023/05/01 04:03:29;;;;;;;6.05;3.55;;;13.30;99.90;;;;;;5005386;28;20029;-83
2023/05/01 04:05:55;;;;;;;5.25;4.28;;;13.30;99.90;;;;;;5014813;28;20025;-83
2023/05/01 04:08:20;;;;;;;6.68;3.60;;;13.30;99.90;;;;;;5013424;28;20716;-84
2023/05/01 04:10:46;;;;;;;4.50;3.60;;;13.30;99.90;;;;;;5014881;28;20068;-83
2023/05/01 04:13:12;;;;;;;5.13;3.55;;;13.30;99.90;;;;;;5014533;28;20092;-84
2023/05/01 04:15:37;;;;;;;6.88;3.50;;;13.30;99.90;;;;;;5013734;28;20018;-83
2023/05/01 04:18:03;;;;;;;4.65;3.80;;;13.40;99.90;;;;;;5014844;28;20030;-85
2023/05/01 04:20:29;;;;;;;5.22;3.88;;;13.40;99.90;;;;;;5000918;28;20019;-84
2023/05/01 04:22:55;;;;;;;7.10;3.80;;;13.40;99.90;;;;;;4994133;28;20101;-84
2023/05/01 04:25:20;;;;;;;4.75;3.90;;;13.30;99.90;;;;;;5005814;28;20066;-84
2023/05/01 04:27:46;;;;;;;4.20;3.80;;;13.40;99.90;;;;;;5004552;28;20049;-84
2023/05/01 04:30:11;;;;;;;6.35;3.55;;;13.30;99.90;;;;;;5014552;28;20029;-84
2023/05/01 04:32:37;;;;;;;7.53;3.97;;;13.40;99.90;;;;;;5014315;28;20033;-84
2023/05/01 04:35:03;;;;;;;9.07;3.83;;;13.30;99.90;;;;;;5013945;28;20033;-84
2023/05/01 04:37:29;;;;;;;6.13;3.58;;;13.10;99.90;;;;;;5014630;28;20034;-84
2023/05/01 04:39:54;;;;;;;4.40;3.95;;;13.00;99.90;;;;;;4998761;28;20478;-84
2023/05/01 04:42:20;;;;;;;5.03;3.60;;;13.00;99.90;;;;;;4994586;28;20033;-84
2023/05/01 04:44:46;;;;;;;7.75;3.72;;;13.10;99.90;;;;;;5002592;28;20046;-85
2023/05/01 04:47:12;;;;;;;4.47;3.67;;;13.10;99.90;;;;;;4998409;28;20062;-84
2023/05/01 04:49:38;;;;;;;5.78;3.38;;;13.20;99.90;;;;;;5012661;28;20500;-84
2023/05/01 04:52:03;;;;;;;4.93;3.58;;;13.30;99.90;;;;;;5014325;28;20030;-84
2023/05/01 04:54:29;;;;;;;9.35;3.55;;;13.30;99.90;;;;;;5012891;28;20065;-84
2023/05/01 04:56:54;;;;;;;7.55;3.60;;;13.30;99.90;;;;;;4995848;28;20026;-84
2023/05/01 04:59:20;;;;;;;4.40;3.53;;;13.30;99.90;;;;;;5007626;28;20384;-84
2023/05/01 05:01:45;;;;;;;4.13;3.72;;;13.40;99.90;;;;;;5000977;28;20026;-84
2023/05/01 05:04:11;;;;;;;4.70;3.65;;;13.40;99.90;;;;;;4993693;28;20057;-84
2023/05/01 05:06:36;;;;;;;7.00;3.97;;;13.40;99.90;;;;;;4994172;28;20113;-83
2023/05/01 05:09:02;;;;;;;6.43;3.80;;;13.90;99.90;;;;;;4994679;28;20351;-84
2023/05/01 05:11:28;;;;;;;4.28;3.80;;;13.30;99.90;;;;;;4993587;28;20110;-84
2023/05/01 05:13:53;;;;;;;3.72;3.33;;;13.30;99.90;;;;;;4993976;28;20117;-84
2023/05/01 05:16:19;;;;;;;5.25;3.85;;;13.20;99.90;;;;;;4994306;28;20026;-83
2023/05/01 05:18:44;;;;;;;7.45;3.50;;;13.30;99.90;;;;;;4992990;28;20030;-84
2023/05/01 05:21:10;;;;;;;4.90;3.55;;;13.30;99.90;;;;;;5003833;28;20474;-84
2023/05/01 05:23:36;;;;;;;11.02;4.13;;;13.30;99.90;;;;;;5013666;28;20031;-84
2023/05/01 05:26:01;;;;;;;6.40;4.03;;;13.30;99.90;;;;;;5012786;28;20022;-84
2023/05/01 05:28:28;;;;;;;6.10;4.13;;;13.30;99.90;;;;;;5012953;28;20112;-84
2023/05/01 05:30:54;;;;;;;4.32;3.80;;;13.30;99.90;;;;;;5011077;28;20037;-84
2023/05/01 05:33:20;;;;;;;8.55;4.07;;;13.30;99.90;;;;;;5011884;28;20512;-84
2023/05/01 05:35:45;;;;;;;5.78;3.78;;;13.30;99.90;;;;;;5008919;28;20030;-84
2023/05/01 05:38:11;;;;;;;6.78;4.50;;;13.30;99.90;;;;;;4993456;28;20030;-85
2023/05/01 05:40:36;;;;;;;7.30;3.70;;;13.30;99.90;;;;;;4993241;28;20038;-84
2023/05/01 05:43:02;;;;;;;7.75;3.85;;;13.40;99.90;;;;;;4993637;28;20022;-84
2023/05/01 05:45:28;;;;;;;4.30;3.80;;;13.40;99.90;;;;;;4993366;28;20034;-84
2023/05/01 05:47:53;;;;;;;6.97;4.10;;;13.40;99.90;;;;;;4998823;28;20457;-84
2023/05/01 05:50:19;;;;;;;4.20;3.80;;;13.40;99.90;;;;;;5008612;28;20057;-83
2023/05/01 05:52:44;;;;;;;8.38;3.60;;;13.40;99.90;;;;;;5005038;28;20084;-86
2023/05/01 05:55:10;;;;;;;6.25;3.67;;;13.50;99.90;;;;;;5013158;28;20440;-84
2023/05/01 05:57:36;;;;;;;7.10;3.92;;;13.40;99.90;;;;;;5011959;28;20382;-85
2023/05/01 06:00:04;;;;;;;5.57;3.63;;;13.50;99.90;;;;;;5008806;28;20036;-84
2023/05/01 06:02:31;;;;;;;7.00;3.88;;;13.40;99.90;;;;;;5003991;28;20034;-84
2023/05/01 06:04:57;;;;;;;5.80;3.72;;;13.40;99.90;;;;;;5002847;28;20022;-85
2023/05/01 06:07:24;;;;;;;6.55;3.95;;;13.40;99.90;;;;;;5003160;28;20028;-84
2023/05/01 06:09:50;;;;;;;4.88;3.65;;;13.40;99.90;;;;;;5000751;28;20093;-84
2023/05/01 06:12:15;;;;;;;6.25;3.28;;;13.50;99.90;;;;;;5003057;28;20104;-84
2023/05/01 06:14:41;;;;;;;8.38;4.20;;;13.50;99.90;;;;;;5002136;28;20048;-85
2023/05/01 06:17:07;;;;;;;6.55;4.15;;;13.50;99.90;;;;;;5001701;28;20502;-84
2023/05/01 06:19:33;;;;;;;5.30;4.15;;;13.50;99.90;;;;;;5003147;28;20398;-86
2023/05/01 06:21:59;;;;;;;7.32;3.53;;;13.50;99.90;;;;;;5008791;28;20109;-85
2023/05/01 06:24:26;;;;;;;6.38;4.00;;;13.50;99.90;;;;;;5012839;28;20153;-85
2023/05/01 06:26:52;;;;;;;4.88;3.90;;;13.50;99.90;;;;;;5012589;28;20091;-84
2023/05/01 06:29:17;;;;;;;6.03;4.40;;;13.50;99.90;;;;;;5010896;28;20501;-86
2023/05/01 06:31:43;;;;;;;6.88;3.75;;;13.50;99.90;;;;;;5002950;28;20085;-83
2023/05/01 06:34:08;;;;;;;6.13;3.80;;;13.50;99.90;;;;;;4992694;28;20065;-84
2023/05/01 06:36:34;;;;;;;6.85;4.15;;;13.50;99.90;;;;;;4992169;28;20109;-82
2023/05/01 06:39:00;;;;;;;5.90;4.00;;;13.50;99.90;;;;;;4993084;28;20037;-82
2023/05/01 06:41:25;;;;;;;8.10;3.90;;;13.50;99.90;;;;;;4991995;28;20409;-85
2023/05/01 06:43:51;;;;;;;7.32;4.20;;;13.60;99.90;;;;;;4992605;28;20166;-83
2023/05/01 06:46:17;;;;;;;5.47;3.65;;;13.60;99.90;;;;;;4992552;28;20044;-83
2023/05/01 06:48:42;;;;;;;10.45;4.32;;;13.60;99.90;;;;;;4992240;28;20022;-82
2023/05/01 06:51:08;;;;;;;6.10;4.22;;;13.60;99.90;;;;;;5008438;28;20041;-83
2023/05/01 06:53:34;;;;;;;8.90;4.07;;;13.50;99.90;;;;;;5010494;28;20034;-83
2023/05/01 06:55:59;;;;;;;7.97;4.65;;;13.50;99.90;;;;;;5001291;28;20085;-82
2023/05/01 06:58:25;;;;;;;8.40;4.47;;;13.50;99.90;;;;;;4995004;28;20457;-82
2023/05/01 07:00:52;;;;;;;11.50;5.10;;;13.50;99.90;;;;;;5000771;28;20111;-83
2023/05/01 07:03:17;;;;;;;11.77;4.40;;;13.50;99.90;;;;;;4991950;28;20385;-83
2023/05/01 07:05:43;;;;;;;5.53;4.53;;;13.50;99.90;;;;;;4992434;28;20126;-83
2023/05/01 07:08:09;;;;;;;7.93;4.53;;;13.60;99.90;;;;;;4992719;28;20030;-81
2023/05/01 07:10:34;;;;;;;7.72;4.47;;;13.60;99.90;;;;;;4991612;28;20485;-82
2023/05/01 07:13:00;;;;;;;6.90;4.60;;;13.60;99.90;;;;;;5001520;28;20046;-82
2023/05/01 07:15:27;;;;;;;6.32;5.70;;;13.60;99.90;;;;;;5004840;28;20084;-82
2023/05/01 07:17:52;;;;;;;10.55;5.43;;;13.60;99.90;;;;;;4997890;28;20194;-81
2023/05/01 07:20:18;;;;;;;8.73;5.03;;;13.50;99.90;;;;;;4992254;28;20107;-82
2023/05/01 07:22:43;;;;;;;8.95;5.80;;;13.50;99.90;;;;;;4991157;28;20072;-82
2023/05/01 07:25:09;;;;;;;14.07;5.88;;;13.60;99.90;;;;;;4991617;28;20027;-83
2023/05/01 07:27:34;;;;;;;6.22;4.40;;;13.60;99.90;;;;;;4991101;28;20030;-83
2023/05/01 07:30:01;;;;;;;6.57;4.70;;;13.60;99.90;;;;;;4992357;28;20030;-84
2023/05/01 07:32:26;;;;;;;6.75;5.38;;;13.50;99.90;;;;;;4990433;28;20440;-84
2023/05/01 07:34:52;;;;;;;6.05;4.80;;;13.50;99.90;;;;;;4997819;28;20038;-83
2023/05/01 07:37:17;;;;;;;5.40;4.70;;;13.50;99.90;;;;;;4998630;28;20396;-83
2023/05/01 07:39:43;;;;;;;7.57;4.97;;;13.60;99.90;;;;;;4996217;28;20036;-82
2023/05/01 07:42:09;;;;;;;6.78;5.00;;;13.60;99.90;;;;;;4999113;28;20802;-83
2023/05/01 07:44:34;;;;;;;11.57;5.20;;;13.60;99.90;;;;;;5002865;28;20029;-82
2023/05/01 07:47:04;;;;;;;5.60;4.72;;;13.60;99.90;;;;;;5000340;28;20085;-82
2023/05/01 07:49:35;;;;;;;8.95;5.22;;;13.70;99.90;;;;;;4996743;28;20107;-83
2023/05/01 07:52:01;;;;;;;7.22;5.00;;;13.70;99.90;;;;;;4998159;28;20359;-82
2023/05/01 07:54:27;;;;;;;5.80;4.88;;;13.70;99.90;;;;;;5007564;28;20041;-83
2023/05/01 07:56:52;;;;;;;18.85;6.65;;;13.80;99.90;;;;;;5005500;28;20026;-83
2023/05/01 07:59:18;;;;;;;11.32;5.70;;;13.70;99.90;;;;;;5003966;28;20095;-83
2023/05/01 08:01:43;;;;;;;11.13;4.60;;;13.80;99.90;;;;;;5008036;28;20021;-83
2023/05/01 08:04:09;;;;;;;8.32;5.60;;;13.90;99.90;;;;;;5003754;28;20029;-83
2023/05/01 08:06:35;;;;;;;6.88;5.15;;;13.90;99.90;;;;;;5002305;28;20081;-83
2023/05/01 08:09:00;;;;;;;5.72;5.13;;;13.90;99.90;;;;;;4993561;28;20084;-83
2023/05/01 08:11:28;;;;;;;7.68;5.40;;;13.90;99.90;;;;;;4993580;28;20034;-83
2023/05/01 08:13:53;;;;;;;7.57;5.47;;;13.90;99.90;;;;;;4996789;28;20046;-84
2023/05/01 08:16:20;;;;;;;9.93;6.63;;;13.90;99.90;;;;;;4995992;28;20030;-83
2023/05/01 08:18:45;;;;;;;7.57;5.00;;;13.90;99.90;;;;;;5009240;28;20058;-83
2023/05/01 08:21:11;;;;;;;10.55;5.90;;;13.90;99.90;;;;;;4995432;28;20060;-83
2023/05/01 08:23:37;;;;;;;10.07;5.80;;;13.90;99.90;;;;;;4993306;28;20118;-83
2023/05/01 08:26:02;;;;;;;8.48;6.20;;;13.90;99.90;;;;;;4998988;28;20054;-83
2023/05/01 08:28:28;;;;;;;8.90;7.25;;;14.00;99.90;;;;;;4998851;28;20104;-84
2023/05/01 08:30:53;;;;;;;14.30;5.85;;;14.00;99.90;;;;;;5005514;28;20026;-81
2023/05/01 08:33:19;;;;;;;9.85;5.60;;;14.00;99.90;;;;;;4998574;28;20040;-81
2023/05/01 08:35:44;;;;;;;10.32;5.28;;;14.00;99.90;;;;;;5003048;28;20477;-80
2023/05/01 08:38:10;;;;;;;7.97;6.10;;;13.80;99.90;;;;;;5010731;28;20428;-81
2023/05/01 08:40:37;;;;;;;6.75;5.57;;;14.10;99.90;;;;;;5006719;28;20128;-81
2023/05/01 08:43:03;;;;;;;10.32;5.68;;;14.00;99.90;;;;;;5004531;28;20101;-81
2023/05/01 08:45:35;;;;;;;11.82;6.00;;;14.10;99.90;;;;;;5009397;28;20037;-82
2023/05/01 08:48:04;;;;;;;7.28;6.00;;;14.10;99.90;;;;;;5010712;28;20049;-80
2023/05/01 08:50:32;;;;;;;7.88;5.97;;;14.10;99.90;;;;;;4998765;28;20029;-81
2023/05/01 08:52:58;;;;;;;13.85;6.55;;;14.10;99.90;;;;;;5010676;28;20489;-81
2023/05/01 08:55:26;;;;;;;10.02;5.50;;;14.10;99.90;;;;;;4999042;28;20470;-81
2023/05/01 08:57:53;;;;;;;11.43;6.57;;;14.10;99.90;;;;;;5002019;28;20068;-81
2023/05/01 09:00:20;;;;;;;8.50;6.18;;;14.20;99.90;;;;;;4992150;28;20506;-81
2023/05/01 09:02:47;;;;;;;7.25;5.60;;;14.00;99.90;;;;;;4994492;28;20030;-81
2023/05/01 09:05:14;;;;;;;9.35;6.72;;;14.10;99.90;;;;;;4999613;28;20134;-82
2023/05/01 09:07:41;;;;;;;7.45;5.97;;;14.10;99.90;;;;;;5004461;28;20030;-82
2023/05/01 09:10:07;;;;;;;11.85;6.57;;;14.10;99.90;;;;;;5002929;28;20378;-81
2023/05/01 09:12:34;;;;;;;13.15;6.97;;;14.10;99.90;;;;;;5001545;28;20022;-81
2023/05/01 09:15:02;;;;;;;11.50;6.68;;;14.00;99.90;;;;;;5009219;28;20046;-81
2023/05/01 09:17:30;;;;;;;9.18;6.45;;;14.00;99.90;;;;;;4998676;28;20448;-80
2023/05/01 09:19:56;;;;;;;11.73;6.38;;;14.10;99.90;;;;;;5009330;28;20091;-81
2023/05/01 09:22:22;;;;;;;8.23;6.38;;;14.10;99.90;;;;;;5003763;28;20514;-81
2023/05/01 09:24:48;;;;;;;9.75;6.22;;;14.10;99.90;;;;;;5005079;28;20038;-81
2023/05/01 09:27:13;;;;;;;14.60;6.15;;;14.10;99.90;;;;;;5010806;28;20508;-81
2023/05/01 09:29:46;;;;;;;8.27;6.43;;;14.00;99.90;;;;;;4996980;28;20044;-81
2023/05/01 09:32:19;;;;;;;11.07;6.30;;;14.10;99.90;;;;;;4998828;28;20030;-82
2023/05/01 09:34:46;;;;;;;8.77;6.47;;;14.00;99.90;;;;;;5009497;28;20034;-81
2023/05/01 09:37:30;;;;;;;9.82;6.82;;;14.00;99.90;;;;;;5009183;28;20052;-82
2023/05/01 09:40:14;;;;;;;10.18;7.20;;;14.00;99.90;;;;;;5009648;28;20030;-82
2023/05/01 09:42:48;;;;;;;9.43;6.75;;;14.00;99.90;;;;;;5003769;28;20077;-80
2023/05/01 09:45:14;;;;;;;11.38;6.80;;;14.00;99.90;;;;;;5004726;28;20030;-81
2023/05/01 09:47:42;;;;;;;8.25;6.38;;;14.00;99.90;;;;;;4992502;28;20030;-80
2023/05/01 09:50:08;;;;;;;10.75;6.20;;;14.00;99.90;;;;;;4992442;28;20410;-80
2023/05/01 09:52:34;;;;;;;12.07;6.78;;;14.00;99.90;;;;;;5004303;28;20022;-80
2023/05/01 09:55:17;;;;;;;9.25;6.57;;;14.10;99.90;;;;;;5006279;28;20045;-80
2023/05/01 09:57:44;;;;;;;10.05;6.70;;;14.00;99.90;;;;;;5003006;28;20029;-80
2023/05/01 10:00:13;;;;;;;14.02;7.22;;;14.10;99.90;;;;;;5007148;28;20042;-81
2023/05/01 10:02:40;;;;;;;12.38;8.48;;;14.10;99.90;;;;;;5010846;28;20037;-81
2023/05/01 10:05:07;;;;;;;11.38;7.07;;;14.10;99.90;;;;;;5010959;28;20547;-82
2023/05/01 10:07:33;;;;;;;13.18;7.80;;;14.10;99.90;;;;;;5005828;28;20033;-81
2023/05/01 10:10:18;;;;;;;10.02;7.88;;;14.20;99.90;;;;;;5012611;28;20030;-81
2023/05/01 10:12:43;;;;;;;11.00;7.65;;;14.30;99.90;;;;;;5007918;28;20049;-81
2023/05/01 10:15:09;;;;;;;10.50;7.97;;;14.20;99.90;;;;;;4992491;28;20374;-81
2023/05/01 10:17:35;;;;;;;10.80;7.78;;;14.30;99.90;;;;;;4992213;28;20026;-81
2023/05/01 10:20:01;;;;;;;12.20;7.97;;;14.30;99.90;;;;;;4991510;28;20429;-80
2023/05/01 10:22:27;;;;;;;13.68;8.13;;;14.30;99.90;;;;;;4992638;28;20030;-81
2023/05/01 10:24:54;;;;;;;14.07;9.23;;;14.40;99.90;;;;;;4995905;28;20540;-81
2023/05/01 10:27:24;;;;;;;14.35;8.43;;;14.50;99.90;;;;;;5011963;28;20037;-82
2023/05/01 10:29:52;;;;;;;20.77;8.23;;;14.40;99.90;;;;;;5012013;28;20026;-81
2023/05/01 10:32:19;;;;;;;13.50;7.85;;;14.40;99.90;;;;;;5012418;28;20028;-81
2023/05/01 10:34:49;;;;;;;14.15;9.25;;;14.40;99.90;;;;;;5007926;28;20050;-81
2023/05/01 10:37:23;;;;;;;16.83;9.43;;;14.40;99.90;;;;;;5011737;28;20029;-81
2023/05/01 10:39:49;;;;;;;16.63;9.85;;;14.40;99.90;;;;;;5010636;28;20060;-81
2023/05/01 10:42:15;;;;;;;13.32;8.63;;;14.40;99.90;;;;;;5011782;28;20474;-81
2023/05/01 10:44:41;;;;;;;11.38;8.05;;;14.40;99.90;;;;;;5011904;28;20037;-81
2023/05/01 10:47:30;;;;;;;13.65;8.55;;;14.30;99.90;;;;;;5011852;28;20125;-81
2023/05/01 10:50:07;;;;;;;11.60;8.45;;;14.20;99.90;;;;;;4992812;28;20033;-81
2023/05/01 10:53:15;;;;;;;15.60;8.38;;;14.20;99.90;;;;;;5005913;28;20041;-80
2023/05/01 10:55:42;;;;;;;13.05;8.02;;;14.20;99.90;;;;;;4993844;28;20057;-81
2023/05/01 10:58:08;;;;;;;9.82;7.35;;;14.20;99.90;;;;;;4992589;28;20049;-81
2023/05/01 11:00:34;;;;;;;10.52;6.32;;;14.10;99.90;;;;;;4991664;28;20022;-81
2023/05/01 11:03:21;;;;;;;9.48;6.65;;;14.10;99.90;;;;;;4990335;28;20069;-81
2023/05/01 11:05:58;;;;;;;9.23;6.53;;;14.00;99.90;;;;;;4991008;28;20054;-81
2023/05/01 11:08:31;;;;;;;8.20;6.28;;;14.00;99.90;;;;;;4992229;28;20160;-81
2023/05/01 11:10:57;;;;;;;8.65;6.57;;;14.00;99.90;;;;;;5012058;28;20014;-81
2023/05/01 11:13:53;;;;;;;14.32;7.60;;;14.00;99.90;;;;;;5011810;28;20080;-80
2023/05/01 11:16:44;;;;;;;11.23;7.65;;;13.90;99.90;;;;;;5012710;28;20402;-80
2023/05/01 11:19:22;;;;;;;;;;;13.80;99.90;;;;;;5016098;28;20117;-81
2023/05/01 11:21:49;;;;;;;10.13;6.40;;;13.70;99.90;;;;;;5015527;28;19912;-80
2023/05/01 11:24:16;;;;;;;17.13;7.57;;;13.60;99.90;;;;;;5002393;28;20458;-80
2023/05/01 11:26:42;;;;;;;8.32;7.03;;;13.60;99.90;;;;;;4997451;28;20049;-80
2023/05/01 11:29:09;;;;;;;15.77;8.10;;;13.60;99.90;;;;;;5014784;28;20576;-80
2023/05/01 11:31:35;;;;;;;15.23;7.55;;;13.60;99.90;;;;;;5014257;28;20034;-80
2023/05/01 11:34:03;;;;;;;11.10;7.97;;;13.50;99.90;;;;;;4993144;28;20035;-81
2023/05/01 11:36:45;;;;;;;9.48;6.82;;;13.50;99.90;;;;;;5009226;28;20022;-82
2023/05/01 11:39:14;;;;;;;9.25;7.40;;;13.50;99.90;;;;;;5012416;28;20034;-82
2023/05/01 11:41:40;;;;;;;11.70;6.85;;;13.70;99.90;;;;;;5011587;28;20524;-82
2023/05/01 11:44:05;;;;;;;7.63;6.57;;;13.60;99.90;;;;;;5008984;28;20033;-82
2023/05/01 11:46:32;;;;;;;9.77;6.28;;;13.60;99.90;;;;;;5013504;28;20029;-82
2023/05/01 11:49:02;;;;;;;10.48;7.38;;;13.60;99.90;;;;;;5013337;28;20489;-81
2023/05/01 11:51:28;;;;;;;12.05;6.28;;;13.60;99.90;;;;;;5011429;28;20628;-81
2023/05/01 11:54:02;;;;;;;7.43;6.30;;;13.70;99.90;;;;;;5010437;28;20045;-81
2023/05/01 11:56:28;;;;;;;6.88;6.03;;;13.70;99.90;;;;;;5007633;28;20506;-80
2023/05/01 11:59:07;;;;;;;8.18;6.43;;;13.70;99.90;;;;;;4998618;28;20055;-80
2023/05/01 12:01:42;;;;;;;12.15;6.30;;;13.80;99.90;;;;;;4998490;28;20420;-80
2023/05/01 12:04:07;;;;;;;9.57;6.22;;;13.80;99.90;;;;;;5001657;28;20547;-81
2023/05/01 12:06:43;;;;;;;9.07;6.32;;;13.70;99.90;;;;;;5007393;28;20108;-82
2023/05/01 12:09:16;;;;;;;9.05;6.32;;;13.70;99.90;;;;;;5008897;28;20072;-82
2023/05/01 12:11:42;;;;;;;11.25;6.57;;;13.60;99.90;;;;;;5005817;28;20031;-81
2023/05/01 12:14:08;;;;;;;8.50;6.93;;;13.70;99.90;;;;;;5005627;28;20041;-82
2023/05/01 12:16:35;;;;;;;7.97;6.72;;;13.70;99.90;;;;;;5006908;28;20061;-83
2023/05/01 12:19:01;;;;;;;10.30;7.70;;;13.80;99.90;;;;;;5013542;28;20026;-83
2023/05/01 12:21:27;;;;;;;10.57;7.50;;;13.80;99.90;;;;;;5013605;28;20033;-82
2023/05/01 12:23:53;;;;;;;11.48;7.80;;;13.70;99.90;;;;;;5014026;28;20034;-83
2023/05/01 12:26:24;;;;;;;10.02;7.25;;;13.70;99.90;;;;;;5012820;28;20038;-83
2023/05/01 12:29:08;;;;;;;11.13;6.82;;;13.70;99.90;;;;;;5012976;28;20416;-82
2023/05/01 12:31:35;;;;;;;11.07;7.13;;;13.80;99.90;;;;;;5013354;28;20088;-82
2023/05/01 12:34:02;;;;;;;12.05;6.63;;;13.80;99.90;;;;;;5012517;28;20481;-83
2023/05/01 12:36:31;;;;;;;9.65;7.30;;;13.90;99.90;;;;;;5009805;28;20397;-83
2023/05/01 12:39:13;;;;;;;8.30;6.90;;;13.90;99.90;;;;;;5013853;28;20022;-82
2023/05/01 12:41:41;;;;;;;15.57;7.90;;;13.90;99.90;;;;;;5009951;28;20049;-83
2023/05/01 12:44:21;;;;;;;11.95;5.80;;;13.90;99.90;;;;;;5012783;28;20066;-83
2023/05/01 12:47:07;;;;;;;10.70;5.87;;;13.90;99.90;;;;;;5009120;28;20030;-82
2023/05/01 12:49:37;;;;;;;8.93;5.95;;;14.00;99.90;;;;;;5001699;28;20300;-83